PADKPASY

Guest
Details From PADK - ADAK
To PASY - EARECKSON AS
Flight Number -
Tags decoded
Created
Modified
Stats Distance 347 nm / 642 km
Max Altitude 0 ft / 0 m
Waypoints 3
Social Downloads 0
Likes 0
Share VATSIM

Download

Looking for another format? Having issues loading an existing format? Contact us
Advertisement - Login to hide

Notes

Requested: PADK SYA PASY

Route

PADK SYA PASY

ID Type Via Altitude Latitude Longitude Leg Dist Tot Dist Heading (true) Name
O PADK APT - 0 ft / 0 m 51.87798˚ -176.64574˚ - 0 nm - ADAK
SYA NDB - 0 ft / 0 m 52.72200˚ 174.06028˚ 344 nm 344 nm 282° / 275° SHEMYA NDB
O PASY APT - 0 ft / 0 m 52.71222˚ 174.11362˚ 2 nm 346 nm 107° / 107° EARECKSON AS

Altitude Profile

Advertisement - Login to hide

Weather


0- 5 10 15 20 25 30 35+ Temperature / ° C

Clouds and Precipitation
Forecast for 2017-12-13 18:00 UTC. Updated 2 hours ago

Ground ~20,000 ft ~40,000 ft Winds

PADK

Details ICAO PADK (ADK)
Name ADAK
Region USA (Alaska)
Timezone America/Adak (UTC-10.0)
Stats Elevation 18 ft / 5 m (AMSL)
Location 51.877976° -176.645742°
Runways 2
Magnetic Variation 4.748° E

METAR

PADK 131656Z AUTO 16013KT 7SM -SN FEW011 BKN017 OVC025 01/00 A2947

Decode

TAF

Not found

Departure Runways

ID Width Length Bearing (true) Bearing (mag) Surface Threshold Offset Overrun Length
05 200 ft / 61 m 7,772 ft / 2,369 m 60.49° 55.74° Asphalt 0 ft / 0 m 751 ft / 229 m
18 200 ft / 61 m 7,603 ft / 2,317 m 185.39° 180.64° Asphalt 0 ft / 0 m 0 ft / 0 m
23 200 ft / 61 m 7,772 ft / 2,369 m 240.52° 235.77° Asphalt 0 ft / 0 m 151 ft / 46 m
36 200 ft / 61 m 7,603 ft / 2,317 m 5.38° 0.63° Asphalt 0 ft / 0 m 0 ft / 0 m

PASY

Details ICAO PASY (SYA)
Name EARECKSON AS
Region USA (Alaska)
Timezone America/Adak (UTC-10.0)
Stats Elevation 98 ft / 30 m (AMSL)
Location 52.712221° 174.113618°
Runways 1
Magnetic Variation 0.445° E

METAR

PASY 131708Z 18008KT 7SM SCT009 BKN055 00/M01 A2917 RMK AO2A SLP882

Decode

TAF

TAF AMD PASY 131609Z 1316/1420 20012KT 3600 -SN BR BKN009 BKN040 QNH2915INS BECMG 1402/1403 10010G15KT 9000 -RASN SCT010 BKN020 620208 QNH2920INS TX04/1409Z TNM01/1318Z

Decode

Destination Runways

ID Width Length Bearing (true) Bearing (mag) Surface Threshold Offset Overrun Length
10 150 ft / 46 m 9,978 ft / 3,041 m 107.03° 106.58° Asphalt 0 ft / 0 m 0 ft / 0 m
28 150 ft / 46 m 9,978 ft / 3,041 m 287.06° 286.61° Asphalt 0 ft / 0 m 0 ft / 0 m

Approach Navaids

Runway Type Ident Frequency Range Bearing (true) Bearing (mag) Slope Elevation
28 Localiser ISYA 110.10 MHz 18 nm / 33 km 287.74° 287.30° - 98 ft / 30 m (AMSL)
28 Glidescope ISYA 110.10 MHz 10 nm / 19 km 287.04° 286.60° 2.50° 98 ft / 30 m (AMSL)

Popular Alternatives